Cruz Bay, VI (00830)

11:49 PM AST on September 03, 2015 (GMT -0400)
ISTJOHNC2 | | Change Station
CLOSE
Current Station
Personal Weather Station
Location: Estate Bethany, ST. JOHN
Elevation: 443 ft
Nearby Weather Stations

Elev 443 ft 18.33 °N, 64.78 °W | Updated 5 minutes ago

Clear
Clear
79.2 °F
Feels Like 83 °F
N
6.0
Wind Variable Wind from ENE
Gusts 7.0 mph

Today
High -- | Low -- °F
--% Chance of Precip.
Yesterday
High -- | Low -- °F
Precip. -- in
6:04 AM 6:31 PM
Waning Gibbous, 64% visible
Pressure 29.98 in
Visibility 10.0 miles
Clouds Clear
Heat Index 83 °F
Dew Point 75 °F
Humidity 88%
Rainfall in
Snow Depth Not available.
UV 0 out of 12
Pollen Not available.
Air Quality Not available.
Flu Activity Not available.
METAR TIST 040253Z 07004KT 10SM CLR 28/24 A2998 RMK AO2 SLP151 T02830239 50008
Pressure 29.98 in
Visibility 10.0 miles
Clouds Clear
Heat Index 83 °F
Dew Point 75 °F
Humidity 88%
Rainfall in
Snow Depth Not available.
UV 0 out of 12
Pollen Not available.
Air Quality Not available.
Flu Activity Not available.
METAR TIST 040253Z 07004KT 10SM CLR 28/24 A2998 RMK AO2 SLP151 T02830239 50008

10-Day Weather Forecast

×

Almanac

Astronomy

Sep. 03, 2015 Rise Set
Actual Time
Civil Twilight
Nautical Twilight
Astronomical Twilight
Moon
Length of Visible Light
Length of Day
Tomorrow will be .
, % of the Moon is Illuminated

Today's Extremes

State Highs State Lows

Community

WunderPhotos

Upload Photos

1,852,118 photos uploaded!

WunderBlogs® & News

Nearby

Air Quality

  Air Quality AQ Index Pollutant
Not available.

Snow Depth

Station Depth Elevation

Earthquake Activity

City Distance Mag. Time & Date
Minimum magnitude displayed is 2.5.

Coastal Water Temperatures

Place Temperature

Stations

Nearby Weather Stations

Station Location Temp. Windchill Dew Point Humidity Wind Precip. Elev Updated Type